Time;durP1;ratioP1;P1;durP2;ratioP2;P2;SDS_P1;SDS_P2;PMS_P1;PMS_P2;Temp;Humidity;BMP_temperature;BMP_pressure;BME280_temperature;BME280_humidity;BME280_pressure;Samples;Min_cycle;Max_cycle;Signal;HPM_P1;HPM_P2
2022/06/20 00:00:08;;;;;;;3.47;3.17;;;;;;;;;;4992554;28;20229;-83
2022/06/20 00:02:41;;;;;;;4.03;3.13;;;;;;;;;;4992056;28;20267;-84
2022/06/20 00:05:08;;;;;;;3.43;3.13;;;;;;;;;;4992399;28;20188;-84
2022/06/20 00:07:35;;;;;;;4.03;3.63;;;;;;;;;;4991259;28;20199;-84
2022/06/20 00:10:02;;;;;;;4.30;3.47;;;;;;;;;;4992210;28;20586;-83
2022/06/20 00:12:30;;;;;;;3.83;3.40;;;;;;;;;;4992101;28;20625;-83
2022/06/20 00:15:00;;;;;;;5.70;4.13;;;;;;;;;;4992027;28;20207;-83
2022/06/20 00:17:27;;;;;;;5.53;3.80;;;;;;;;;;4991630;28;20244;-83
2022/06/20 00:19:55;;;;;;;3.23;2.57;;;;;;;;;;4992084;28;20288;-84
2022/06/20 00:22:22;;;;;;;3.77;3.33;;;;;;;;;;4989609;28;20234;-83
2022/06/20 00:24:49;;;;;;;3.13;2.90;;;;;;;;;;4991270;28;20206;-84
2022/06/20 00:27:16;;;;;;;3.77;3.10;;;;;;;;;;4991169;28;20214;-83
2022/06/20 00:29:44;;;;;;;3.43;3.17;;;;;;;;;;4991666;28;20205;-83
2022/06/20 00:32:12;;;;;;;3.27;3.03;;;;;;;;;;4991428;28;20226;-83
2022/06/20 00:34:39;;;;;;;3.10;2.90;;;;;;;;;;4991725;28;20206;-83
2022/06/20 00:37:07;;;;;;;5.87;3.43;;;;;;;;;;4991319;28;20309;-84
2022/06/20 00:39:34;;;;;;;4.00;3.60;;;;;;;;;;4991702;28;20712;-84
2022/06/20 00:42:03;;;;;;;4.97;3.03;;;;;;;;;;4991359;28;20627;-83
2022/06/20 00:44:34;;;;;;;3.13;2.93;;;;;;;;;;4991263;28;20225;-83
2022/06/20 00:47:04;;;;;;;3.57;3.00;;;;;;;;;;5019919;28;20232;-83
2022/06/20 00:49:36;;;;;;;4.13;2.93;;;;;;;;;;5030662;28;20252;-84
2022/06/20 00:52:07;;;;;;;4.80;3.00;;;;;;;;;;5030805;28;20217;-83
2022/06/20 00:54:40;;;;;;;4.10;3.33;;;;;;;;;;5030164;28;20192;-83
2022/06/20 00:57:11;;;;;;;3.00;2.80;;;;;;;;;;5030734;28;20191;-84
2022/06/20 00:59:40;;;;;;;2.73;2.53;;;;;;;;;;5030506;28;20215;-84
2022/06/20 01:02:08;;;;;;;3.87;2.93;;;;;;;;;;5021034;28;20268;-84
2022/06/20 01:04:40;;;;;;;6.07;2.50;;;;;;;;;;5010613;28;20206;-84
2022/06/20 01:07:10;;;;;;;2.67;2.40;;;;;;;;;;5010678;28;20184;-83
2022/06/20 01:09:39;;;;;;;2.47;2.30;;;;;;;;;;5010898;28;20664;-84
2022/06/20 01:12:11;;;;;;;2.53;2.33;;;;;;;;;;5010320;28;20282;-83
2022/06/20 01:14:38;;;;;;;2.17;1.97;;;;;;;;;;5010357;28;20193;-83
2022/06/20 01:17:08;;;;;;;3.30;2.30;;;;;;;;;;5010264;28;20709;-83
2022/06/20 01:19:45;;;;;;;2.40;2.20;;;;;;;;;;5010316;28;20220;-83
2022/06/20 01:22:21;;;;;;;2.70;2.50;;;;;;;;;;5010284;28;20214;-83
2022/06/20 01:24:56;;;;;;;2.73;2.53;;;;;;;;;;5010392;28;20249;-83
2022/06/20 01:27:32;;;;;;;3.33;2.57;;;;;;;;;;5010428;28;20268;-83
2022/06/20 01:29:59;;;;;;;2.57;2.37;;;;;;;;;;5010488;28;20186;-83
2022/06/20 01:32:26;;;;;;;2.43;2.33;;;;;;;;;;5010118;28;20275;-83
2022/06/20 01:34:53;;;;;;;2.50;2.30;;;;;;;;;;5010120;28;20254;-83
2022/06/20 01:37:26;;;;;;;2.50;2.30;;;;;;;;;;5010187;28;20200;-83
2022/06/20 01:39:54;;;;;;;3.07;2.77;;;;;;;;;;5010197;28;20585;-83
2022/06/20 01:42:23;;;;;;;2.43;2.23;;;;;;;;;;5010181;28;20200;-82
2022/06/20 01:44:54;;;;;;;4.63;2.60;;;;;;;;;;5010011;28;20280;-83
2022/06/20 01:47:21;;;;;;;2.90;2.70;;;;;;;;;;5009465;28;20278;-82
2022/06/20 01:49:51;;;;;;;2.93;2.63;;;;;;;;;;5010203;28;20262;-83
2022/06/20 01:52:22;;;;;;;4.43;2.77;;;;;;;;;;5009697;28;20201;-82
2022/06/20 01:54:53;;;;;;;2.77;2.53;;;;;;;;;;5009662;28;20188;-83
2022/06/20 01:57:22;;;;;;;3.27;2.97;;;;;;;;;;5009360;28;20726;-83
2022/06/20 01:59:56;;;;;;;3.07;2.87;;;;;;;;;;5009725;28;20226;-83
2022/06/20 02:02:23;;;;;;;3.27;2.97;;;;;;;;;;5009523;28;20245;-82
2022/06/20 02:04:50;;;;;;;4.53;2.97;;;;;;;;;;5009999;28;20196;-83
2022/06/20 02:07:17;;;;;;;3.53;3.23;;;;;;;;;;5009598;28;20201;-83
2022/06/20 02:09:45;;;;;;;3.70;3.40;;;;;;;;;;5009625;28;20208;-83
2022/06/20 02:12:13;;;;;;;3.70;3.23;;;;;;;;;;5009161;28;20201;-83
2022/06/20 02:14:43;;;;;;;3.30;3.10;;;;;;;;;;5010025;28;20268;-83
2022/06/20 02:17:15;;;;;;;4.03;3.40;;;;;;;;;;5009771;28;20666;-82
2022/06/20 02:19:46;;;;;;;4.00;3.70;;;;;;;;;;5009378;28;20221;-83
2022/06/20 02:22:14;;;;;;;4.90;3.20;;;;;;;;;;5009228;28;20192;-82
2022/06/20 02:24:45;;;;;;;3.30;3.10;;;;;;;;;;5009385;28;20666;-83
2022/06/20 02:27:15;;;;;;;3.50;3.20;;;;;;;;;;5009328;28;20649;-82
2022/06/20 02:29:42;;;;;;;2.87;2.67;;;;;;;;;;5009605;28;20234;-83
2022/06/20 02:32:13;;;;;;;2.53;2.43;;;;;;;;;;5009078;28;20203;-82
2022/06/20 02:34:43;;;;;;;2.57;2.37;;;;;;;;;;5009329;28;20185;-83
2022/06/20 02:37:12;;;;;;;4.17;2.33;;;;;;;;;;5009120;28;20209;-83
2022/06/20 02:39:40;;;;;;;3.03;2.83;;;;;;;;;;5009562;28;20224;-83
2022/06/20 02:42:10;;;;;;;2.90;2.70;;;;;;;;;;5009435;28;20202;-83
2022/06/20 02:44:38;;;;;;;2.83;2.63;;;;;;;;;;5009263;28;20249;-83
2022/06/20 02:47:06;;;;;;;3.00;2.80;;;;;;;;;;5008938;28;20377;-83
2022/06/20 02:49:36;;;;;;;3.10;2.83;;;;;;;;;;5009379;28;20261;-83
2022/06/20 02:52:05;;;;;;;3.60;2.70;;;;;;;;;;5008916;28;20209;-83
2022/06/20 02:54:35;;;;;;;2.40;2.20;;;;;;;;;;5009069;28;20214;-82
2022/06/20 02:57:05;;;;;;;2.80;2.60;;;;;;;;;;5009041;28;20232;-83
2022/06/20 02:59:35;;;;;;;4.90;2.57;;;;;;;;;;5009522;28;20339;-83
2022/06/20 03:02:06;;;;;;;6.00;2.83;;;;;;;;;;5009222;28;20200;-83
2022/06/20 03:04:37;;;;;;;2.70;2.50;;;;;;;;;;5008858;28;20180;-83
2022/06/20 03:07:08;;;;;;;3.07;2.77;;;;;;;;;;5008982;28;20560;-82
2022/06/20 03:09:39;;;;;;;3.80;3.50;;;;;;;;;;5010415;28;20192;-82
2022/06/20 03:12:07;;;;;;;4.17;3.07;;;;;;;;;;5011983;28;20194;-82
2022/06/20 03:14:37;;;;;;;2.93;2.73;;;;;;;;;;5026657;28;20204;-83
2022/06/20 03:17:05;;;;;;;3.23;3.00;;;;;;;;;;5032214;28;20199;-82
2022/06/20 03:19:33;;;;;;;3.20;3.00;;;;;;;;;;5031957;28;20227;-82
2022/06/20 03:22:04;;;;;;;3.40;3.10;;;;;;;;;;5031841;28;20603;-83
2022/06/20 03:24:31;;;;;;;3.13;2.93;;;;;;;;;;5031921;28;20187;-82
2022/06/20 03:26:59;;;;;;;3.43;3.20;;;;;;;;;;5031737;28;20210;-82
2022/06/20 03:29:26;;;;;;;3.10;2.90;;;;;;;;;;5031806;28;20203;-82
2022/06/20 03:31:53;;;;;;;3.00;2.70;;;;;;;;;;5031697;28;20203;-83
2022/06/20 03:34:22;;;;;;;2.80;2.60;;;;;;;;;;5031961;28;20747;-82
2022/06/20 03:36:50;;;;;;;3.43;2.70;;;;;;;;;;5031781;28;20204;-82
2022/06/20 03:39:19;;;;;;;3.03;2.83;;;;;;;;;;5031541;28;20259;-82
2022/06/20 03:41:48;;;;;;;8.87;3.27;;;;;;;;;;5031434;28;20648;-82
2022/06/20 03:44:18;;;;;;;3.87;3.20;;;;;;;;;;5031609;28;20202;-82
2022/06/20 03:46:50;;;;;;;3.03;2.40;;;;;;;;;;5031022;28;20284;-82
2022/06/20 03:49:21;;;;;;;2.60;2.40;;;;;;;;;;5031532;28;20236;-82
2022/06/20 03:51:55;;;;;;;3.30;2.73;;;;;;;;;;5031614;28;20184;-82
2022/06/20 03:54:26;;;;;;;2.70;2.50;;;;;;;;;;5031939;28;20187;-83
2022/06/20 03:56:57;;;;;;;2.73;2.53;;;;;;;;;;5031440;28;20224;-85
2022/06/20 03:59:29;;;;;;;2.93;2.73;;;;;;;;;;5030770;28;20195;-86
2022/06/20 04:01:59;;;;;;;2.73;2.50;;;;;;;;;;5031504;28;20196;-83
2022/06/20 04:04:31;;;;;;;3.13;2.80;;;;;;;;;;5031822;28;20211;-82
2022/06/20 04:07:00;;;;;;;3.20;2.90;;;;;;;;;;5031375;28;20185;-83
2022/06/20 04:12:26;;;;;;;3.00;2.13;;;;;;;;;;5031300;28;20236;-83
2022/06/20 04:14:56;;;;;;;2.83;2.40;;;;;;;;;;5031642;28;20213;-83
2022/06/20 04:20:20;;;;;;;2.73;2.53;;;;;;;;;;5031240;28;20209;-91
2022/06/20 04:22:48;;;;;;;2.67;2.47;;;;;;;;;;5032042;28;20200;-92
2022/06/20 04:25:24;;;;;;;3.27;2.40;;;;;;;;;;5031967;28;20234;-91
2022/06/20 04:27:55;;;;;;;2.70;2.50;;;;;;;;;;5032281;28;20197;-92
2022/06/20 04:30:26;;;;;;;2.50;2.30;;;;;;;;;;5032166;27;20198;-90
2022/06/20 04:32:56;;;;;;;2.47;2.27;;;;;;;;;;5031908;28;20223;-91
2022/06/20 04:35:26;;;;;;;2.17;2.00;;;;;;;;;;5032002;28;20241;-89
2022/06/20 04:37:57;;;;;;;4.03;2.37;;;;;;;;;;5031924;28;20683;-90
2022/06/20 04:40:29;;;;;;;2.80;2.60;;;;;;;;;;5031194;28;20695;-89
2022/06/20 04:43:01;;;;;;;2.23;2.07;;;;;;;;;;5031313;28;20655;-90
2022/06/20 04:45:33;;;;;;;6.27;3.63;;;;;;;;;;5031592;28;20219;-90
2022/06/20 04:48:05;;;;;;;2.50;2.30;;;;;;;;;;5031778;28;20191;-90
2022/06/20 04:50:34;;;;;;;2.50;2.30;;;;;;;;;;5031591;28;20189;-90
2022/06/20 04:53:08;;;;;;;2.70;2.50;;;;;;;;;;5031288;28;20201;-90
2022/06/20 04:55:40;;;;;;;3.43;2.10;;;;;;;;;;5031462;28;20243;-90
2022/06/20 04:58:26;;;;;;;2.90;2.40;;;;;;;;;;5031889;28;20643;-90
2022/06/20 05:00:53;;;;;;;2.40;2.20;;;;;;;;;;5031526;28;20684;-90
2022/06/20 05:03:23;;;;;;;3.00;2.43;;;;;;;;;;5031625;28;20232;-91
2022/06/20 05:05:52;;;;;;;2.67;2.40;;;;;;;;;;5031339;28;20205;-91
2022/06/20 05:08:24;;;;;;;2.57;2.37;;;;;;;;;;5031618;28;20219;-91
2022/06/20 05:10:56;;;;;;;2.40;2.20;;;;;;;;;;5031191;28;20245;-90
2022/06/20 05:13:25;;;;;;;4.53;2.30;;;;;;;;;;5031171;28;20259;-90
2022/06/20 05:15:52;;;;;;;2.40;2.30;;;;;;;;;;5031442;28;20205;-89
2022/06/20 05:18:24;;;;;;;3.43;2.50;;;;;;;;;;5031473;28;20197;-90
2022/06/20 05:20:54;;;;;;;3.90;2.33;;;;;;;;;;5031414;28;20223;-89
2022/06/20 05:23:26;;;;;;;2.47;2.23;;;;;;;;;;5031330;28;20584;-90
2022/06/20 05:25:55;;;;;;;2.80;2.20;;;;;;;;;;5031449;28;20631;-89
2022/06/20 05:28:26;;;;;;;2.70;2.50;;;;;;;;;;5030925;28;20294;-90
2022/06/20 05:31:00;;;;;;;5.97;2.47;;;;;;;;;;5030666;28;20208;-90
2022/06/20 05:33:30;;;;;;;2.50;2.30;;;;;;;;;;5029950;28;20746;-90
2022/06/20 05:36:00;;;;;;;2.27;2.13;;;;;;;;;;5031363;28;20202;-90
2022/06/20 05:38:34;;;;;;;5.47;2.37;;;;;;;;;;5030571;28;20201;-89
2022/06/20 05:41:07;;;;;;;2.43;2.30;;;;;;;;;;5030664;28;20228;-90
2022/06/20 05:43:38;;;;;;;2.57;2.20;;;;;;;;;;5031155;28;20213;-89
2022/06/20 05:46:08;;;;;;;2.50;2.30;;;;;;;;;;5030195;28;20245;-91
2022/06/20 05:48:40;;;;;;;2.57;2.37;;;;;;;;;;5030629;28;20226;-89
2022/06/20 05:51:15;;;;;;;2.80;2.60;;;;;;;;;;5031041;28;20207;-89
2022/06/20 05:53:47;;;;;;;3.20;1.90;;;;;;;;;;5030839;28;20251;-89
2022/06/20 05:56:20;;;;;;;4.73;2.30;;;;;;;;;;5030372;28;20203;-89
2022/06/20 05:58:48;;;;;;;2.27;1.83;;;;;;;;;;5030558;28;20210;-90
2022/06/20 06:01:17;;;;;;;2.80;2.10;;;;;;;;;;5030279;28;20658;-90
2022/06/20 06:03:52;;;;;;;2.33;2.20;;;;;;;;;;5030424;28;20215;-90
2022/06/20 06:06:22;;;;;;;2.50;2.30;;;;;;;;;;5030503;28;20651;-90
2022/06/20 06:08:51;;;;;;;2.83;2.17;;;;;;;;;;5030489;28;20260;-90
2022/06/20 06:11:25;;;;;;;2.10;2.00;;;;;;;;;;5030279;28;20198;-90
2022/06/20 06:13:56;;;;;;;3.53;2.60;;;;;;;;;;5030922;28;20212;-91
2022/06/20 06:19:25;;;;;;;3.27;2.43;;;;;;;;;;5030178;28;20578;-89
2022/06/20 06:21:53;;;;;;;4.40;1.73;;;;;;;;;;5029970;28;20318;-91
2022/06/20 06:24:23;;;;;;;2.47;2.27;;;;;;;;;;5029934;28;20695;-90
2022/06/20 06:26:54;;;;;;;2.07;1.97;;;;;;;;;;5030116;28;20255;-91
2022/06/20 06:29:23;;;;;;;5.73;2.27;;;;;;;;;;5030392;28;20194;-91
2022/06/20 06:31:53;;;;;;;5.03;2.20;;;;;;;;;;5030118;28;20251;-91
2022/06/20 06:34:24;;;;;;;4.83;2.13;;;;;;;;;;5030462;28;20194;-91
2022/06/20 06:36:53;;;;;;;2.00;1.90;;;;;;;;;;5030058;28;20191;-91
2022/06/20 06:39:24;;;;;;;2.33;2.13;;;;;;;;;;5030165;28;20191;-90
2022/06/20 06:41:56;;;;;;;2.87;2.03;;;;;;;;;;5029738;28;20246;-91
2022/06/20 06:44:31;;;;;;;2.57;2.37;;;;;;;;;;5036035;28;20278;-91
2022/06/20 06:46:59;;;;;;;2.10;2.00;;;;;;;;;;5033849;28;20276;-91
2022/06/20 06:49:32;;;;;;;2.50;2.30;;;;;;;;;;5036614;28;20202;-92
2022/06/20 06:52:05;;;;;;;2.20;2.00;;;;;;;;;;5036819;28;20198;-91
2022/06/20 06:54:51;;;;;;;5.00;2.23;;;;;;;;;;5036886;28;20202;-91
2022/06/20 06:57:23;;;;;;;6.97;2.83;;;;;;;;;;5036573;28;20228;-90
2022/06/20 07:00:13;;;;;;;2.37;2.00;;;;;;;;;;5036399;28;20206;-91
2022/06/20 07:02:52;;;;;;;2.43;2.23;;;;;;;;;;5036313;28;20199;-92
2022/06/20 07:05:25;;;;;;;5.10;2.20;;;;;;;;;;5036447;28;20186;-92
2022/06/20 07:07:56;;;;;;;3.10;2.20;;;;;;;;;;5036216;28;20658;-91
2022/06/20 07:10:26;;;;;;;4.90;2.10;;;;;;;;;;5036643;27;20736;-91
2022/06/20 07:12:59;;;;;;;2.00;1.90;;;;;;;;;;5037382;28;20251;-91
2022/06/20 07:15:27;;;;;;;3.20;2.17;;;;;;;;;;5036858;28;20203;-92
2022/06/20 07:17:56;;;;;;;4.30;2.27;;;;;;;;;;5036079;28;20221;-91
2022/06/20 07:20:26;;;;;;;2.80;2.23;;;;;;;;;;5035891;28;20281;-92
2022/06/20 07:22:53;;;;;;;2.30;1.87;;;;;;;;;;5036139;27;20202;-92
2022/06/20 07:25:36;;;;;;;1.83;1.73;;;;;;;;;;5035835;28;20683;-94
2022/06/20 07:28:18;;;;;;;4.30;2.07;;;;;;;;;;5036794;28;20194;-92
2022/06/20 07:30:51;;;;;;;3.03;1.60;;;;;;;;;;5036056;28;20214;-92
2022/06/20 07:33:25;;;;;;;2.70;1.63;;;;;;;;;;5035768;28;20199;-93
2022/06/20 07:35:55;;;;;;;1.57;1.50;;;;;;;;;;5035913;28;20194;-93
2022/06/20 07:38:25;;;;;;;1.73;1.63;;;;;;;;;;5036332;28;20274;-92
2022/06/20 07:40:55;;;;;;;2.50;1.77;;;;;;;;;;5035971;28;20660;-93
2022/06/20 07:43:26;;;;;;;2.23;1.60;;;;;;;;;;5021098;28;20264;-91
2022/06/20 07:45:54;;;;;;;2.37;1.40;;;;;;;;;;5015545;28;20198;-92
2022/06/20 07:48:30;;;;;;;2.40;1.50;;;;;;;;;;5015551;28;20188;-94
2022/06/20 07:51:00;;;;;;;1.50;1.40;;;;;;;;;;5015960;28;20199;-92
2022/06/20 07:53:37;;;;;;;1.60;1.40;;;;;;;;;;5016102;28;20282;-92
2022/06/20 07:56:26;;;;;;;1.97;1.60;;;;;;;;;;5012326;28;20256;-94
2022/06/20 07:58:58;;;;;;;1.67;1.57;;;;;;;;;;5012745;28;20199;-93
2022/06/20 08:01:29;;;;;;;1.43;1.33;;;;;;;;;;5012782;28;20219;-93
2022/06/20 08:04:00;;;;;;;2.60;1.47;;;;;;;;;;5012924;28;20207;-93
2022/06/20 08:06:33;;;;;;;1.80;1.70;;;;;;;;;;5012721;28;20200;-93
2022/06/20 08:09:08;;;;;;;2.47;1.83;;;;;;;;;;5012457;28;20199;-93
2022/06/20 08:11:43;;;;;;;2.13;1.93;;;;;;;;;;5012500;28;20211;-92
2022/06/20 08:14:19;;;;;;;2.30;1.80;;;;;;;;;;5012538;28;20199;-92
2022/06/20 08:16:49;;;;;;;1.90;1.80;;;;;;;;;;5012683;28;20667;-92
2022/06/20 08:19:16;;;;;;;1.73;1.60;;;;;;;;;;5012452;28;20200;-93
2022/06/20 08:21:46;;;;;;;1.90;1.60;;;;;;;;;;5012257;28;20223;-93
2022/06/20 08:24:17;;;;;;;1.97;1.77;;;;;;;;;;5012294;28;20283;-91
2022/06/20 08:26:48;;;;;;;1.83;1.73;;;;;;;;;;5012425;28;20207;-93
2022/06/20 08:29:20;;;;;;;2.10;1.90;;;;;;;;;;5012676;28;20204;-91
2022/06/20 08:31:51;;;;;;;2.07;1.87;;;;;;;;;;5012314;28;20210;-93
2022/06/20 08:34:20;;;;;;;1.87;1.57;;;;;;;;;;5012067;28;20199;-92
2022/06/20 08:36:49;;;;;;;1.77;1.67;;;;;;;;;;5012092;28;20204;-92
2022/06/20 08:39:20;;;;;;;1.70;1.50;;;;;;;;;;5012660;28;20222;-92
2022/06/20 08:42:22;;;;;;;2.50;2.10;;;;;;;;;;5011978;28;20276;-92
2022/06/20 08:45:19;;;;;;;1.70;1.60;;;;;;;;;;4999765;28;20199;-93
2022/06/20 08:48:08;;;;;;;1.70;1.60;;;;;;;;;;5011713;28;20235;-93
2022/06/20 08:51:20;;;;;;;2.83;1.80;;;;;;;;;;5011883;28;20660;-93
2022/06/20 08:54:20;;;;;;;3.77;1.97;;;;;;;;;;5012128;28;20281;-91
2022/06/20 08:56:56;;;;;;;1.93;1.80;;;;;;;;;;5037030;28;20256;-92
2022/06/20 08:59:39;;;;;;;2.10;1.90;;;;;;;;;;5011733;28;20713;-92
2022/06/20 09:02:22;;;;;;;2.13;1.93;;;;;;;;;;5011365;28;20212;-92
2022/06/20 09:05:08;;;;;;;1.87;1.77;;;;;;;;;;5011621;28;20191;-94
2022/06/20 09:07:50;;;;;;;2.17;1.70;;;;;;;;;;5010349;28;20203;-93
2022/06/20 09:11:00;;;;;;;2.30;1.57;;;;;;;;;;5011816;28;20671;-93
2022/06/20 09:13:58;;;;;;;2.10;1.90;;;;;;;;;;5002638;28;20664;-92
2022/06/20 09:16:33;;;;;;;1.63;1.53;;;;;;;;;;5011984;28;20641;-91
2022/06/20 09:19:15;;;;;;;2.03;1.53;;;;;;;;;;5012247;28;20597;-94
2022/06/20 09:21:51;;;;;;;2.47;1.90;;;;;;;;;;5011615;28;20223;-93
2022/06/20 09:24:26;;;;;;;2.00;1.90;;;;;;;;;;5011344;28;20259;-91
2022/06/20 09:26:56;;;;;;;1.80;1.57;;;;;;;;;;5011513;28;20195;-93
2022/06/20 09:29:32;;;;;;;2.67;2.00;;;;;;;;;;5011204;28;20759;-93
2022/06/20 09:32:42;;;;;;;2.00;1.67;;;;;;;;;;5011518;28;20574;-93
2022/06/20 09:35:50;;;;;;;5.75;2.25;;;;;;;;;;5011935;28;20192;-94
2022/06/20 09:38:37;;;;;;;4.07;2.40;;;;;;;;;;5011756;28;20613;-91
2022/06/20 09:41:23;;;;;;;1.60;1.50;;;;;;;;;;5011388;28;20203;-93
2022/06/20 09:44:00;;;;;;;1.90;1.67;;;;;;;;;;5011384;28;20196;-92
2022/06/20 09:46:36;;;;;;;1.88;1.75;;;;;;;;;;5010848;28;20231;-92
2022/06/20 09:49:16;;;;;;;1.70;1.60;;;;;;;;;;5010902;28;20200;-93
2022/06/20 09:51:53;;;;;;;5.18;1.90;;;;;;;;;;5010803;28;20207;-92
2022/06/20 09:54:25;;;;;;;1.80;1.70;;;;;;;;;;5011007;28;20207;-93
2022/06/20 09:57:01;;;;;;;1.55;1.45;;;;;;;;;;5011291;28;20225;-92
2022/06/20 09:59:41;;;;;;;3.83;2.00;;;;;;;;;;5010850;28;20200;-92
2022/06/20 10:02:15;;;;;;;2.05;1.83;;;;;;;;;;5010593;28;20223;-92
2022/06/20 10:04:47;;;;;;;2.90;1.70;;;;;;;;;;5010843;28;20211;-93
2022/06/20 10:07:35;;;;;;;2.08;1.92;;;;;;;;;;5011020;28;20195;-93
2022/06/20 10:10:08;;;;;;;2.10;1.80;;;;;;;;;;5011002;28;20241;-93
2022/06/20 10:12:45;;;;;;;2.38;1.80;;;;;;;;;;5011256;28;20188;-93
2022/06/20 10:15:29;;;;;;;1.80;1.70;;;;;;;;;;5010666;28;20207;-92
2022/06/20 10:18:02;;;;;;;1.60;1.50;;;;;;;;;;5010706;28;20249;-93
2022/06/20 10:20:39;;;;;;;1.70;1.60;;;;;;;;;;5010509;28;20208;-92
2022/06/20 10:23:17;;;;;;;1.63;1.53;;;;;;;;;;5010334;28;20230;-93
2022/06/20 10:26:17;;;;;;;4.70;1.70;;;;;;;;;;5010679;28;20198;-93
2022/06/20 10:28:47;;;;;;;2.00;1.40;;;;;;;;;;5012328;28;20262;-92
2022/06/20 10:31:36;;;;;;;1.80;1.70;;;;;;;;;;5010306;28;20282;-92
2022/06/20 10:34:10;;;;;;;2.37;1.50;;;;;;;;;;5010954;28;20184;-93
2022/06/20 10:36:51;;;;;;;3.40;1.67;;;;;;;;;;5010831;28;20199;-94
2022/06/20 10:39:33;;;;;;;2.15;1.50;;;;;;;;;;5011061;28;20187;-94
2022/06/20 10:42:11;;;;;;;2.22;1.80;;;;;;;;;;5010426;28;20743;-93
2022/06/20 10:44:54;;;;;;;1.70;1.60;;;;;;;;;;5010310;28;20211;-93
2022/06/20 10:47:29;;;;;;;1.77;1.67;;;;;;;;;;5009640;28;20250;-92
2022/06/20 10:50:08;;;;;;;4.27;1.80;;;;;;;;;;5010155;28;20259;-92
2022/06/20 10:52:46;;;;;;;1.77;1.60;;;;;;;;;;5010156;28;20218;-93
2022/06/20 10:55:31;;;;;;;3.90;1.90;;;;;;;;;;5010097;28;20203;-93
2022/06/20 10:58:03;;;;;;;1.80;1.70;;;;;;;;;;5010113;28;20203;-92
2022/06/20 11:00:34;;;;;;;2.20;1.80;;;;;;;;;;5010194;28;20203;-93
2022/06/20 11:03:45;;;;;;;3.72;2.13;;;;;;;;;;5009873;28;20231;-93
2022/06/20 11:06:20;;;;;;;1.83;1.70;;;;;;;;;;5010123;28;20203;-92
2022/06/20 11:08:56;;;;;;;1.90;1.80;;;;;;;;;;5009837;28;20207;-93
2022/06/20 11:11:31;;;;;;;1.95;1.83;;;;;;;;;;5009634;28;20207;-93
2022/06/20 11:14:05;;;;;;;4.50;1.88;;;;;;;;;;5009949;28;20206;-94
2022/06/20 11:16:38;;;;;;;1.83;1.70;;;;;;;;;;5010544;28;20196;-93
2022/06/20 11:19:14;;;;;;;2.55;1.65;;;;;;;;;;5009818;28;20634;-92
2022/06/20 11:21:45;;;;;;;2.10;1.73;;;;;;;;;;5010048;28;20263;-93
2022/06/20 11:24:21;;;;;;;2.93;1.70;;;;;;;;;;5009790;28;20308;-93
2022/06/20 11:26:57;;;;;;;2.15;1.50;;;;;;;;;;5009895;28;20552;-92
2022/06/20 11:29:39;;;;;;;2.23;1.43;;;;;;;;;;5009826;28;20199;-91
2022/06/20 11:32:12;;;;;;;1.60;1.50;;;;;;;;;;5013052;28;20200;-92
2022/06/20 11:34:52;;;;;;;1.60;1.50;;;;;;;;;;5013424;28;20195;-93
2022/06/20 11:37:31;;;;;;;1.90;1.70;;;;;;;;;;5013319;28;20638;-93
2022/06/20 11:40:32;;;;;;;1.90;1.67;;;;;;;;;;5013014;28;20256;-92
2022/06/20 11:43:41;;;;;;;2.08;1.98;;;;;;;;;;5007200;28;20655;-94
2022/06/20 11:46:40;;;;;;;2.05;1.88;;;;;;;;;;5068280;28;20715;-92
2022/06/20 11:49:19;;;;;;;1.35;1.30;;;;;;;;;;4985938;28;20284;-93
2022/06/20 11:51:56;;;;;;;1.50;1.40;;;;;;;;;;5012974;28;20207;-92
2022/06/20 11:54:38;;;;;;;1.77;1.67;;;;;;;;;;5012981;28;20754;-93
2022/06/20 11:57:15;;;;;;;2.05;1.85;;;;;;;;;;5013441;28;20192;-93
2022/06/20 11:59:53;;;;;;;1.48;1.30;;;;;;;;;;5012535;28;20203;-93
2022/06/20 12:02:35;;;;;;;2.65;1.70;;;;;;;;;;5012707;28;20292;-92
2022/06/20 12:05:34;;;;;;;3.50;1.50;;;;;;;;;;5012843;28;20648;-92
2022/06/20 12:08:07;;;;;;;4.32;1.42;;;;;;;;;;5012556;28;20215;-93
2022/06/20 12:10:47;;;;;;;4.72;1.75;;;;;;;;;;5012965;28;20553;-94
2022/06/20 12:13:26;;;;;;;1.65;1.52;;;;;;;;;;5013302;28;20597;-93
2022/06/20 12:16:07;;;;;;;1.60;1.50;;;;;;;;;;5012431;28;20207;-93
2022/06/20 12:24:24;;;;;;;1.50;1.40;;;;;;;;;;5012618;28;20214;-93
2022/06/20 12:26:52;;;;;;;1.27;1.27;;;;;;;;;;5012221;28;20708;-92
2022/06/20 12:29:21;;;;;;;2.00;1.30;;;;;;;;;;5012459;28;20203;-93
2022/06/20 12:31:50;;;;;;;1.65;1.58;;;;;;;;;;5012235;28;20207;-93
2022/06/20 12:34:31;;;;;;;1.70;1.40;;;;;;;;;;5012063;28;20583;-94
2022/06/20 12:37:02;;;;;;;1.88;1.45;;;;;;;;;;5012115;28;20664;-94
2022/06/20 12:39:52;;;;;;;1.60;1.50;;;;;;;;;;5011986;28;20199;-94
2022/06/20 12:42:27;;;;;;;1.40;1.40;;;;;;;;;;5012001;28;20276;-92
2022/06/20 12:45:12;;;;;;;1.65;1.50;;;;;;;;;;5012261;28;20742;-93
2022/06/20 12:48:19;;;;;;;1.35;1.33;;;;;;;;;;5011620;28;20235;-92
2022/06/20 12:51:05;;;;;;;1.80;1.70;;;;;;;;;;5012932;28;20199;-94
2022/06/20 12:53:49;;;;;;;1.23;1.23;;;;;;;;;;5012040;28;20196;-93
2022/06/20 12:56:39;;;;;;;1.73;1.33;;;;;;;;;;5012009;28;20204;-93
2022/06/20 12:59:47;;;;;;;1.60;1.50;;;;;;;;;;5011884;28;20200;-91
2022/06/20 13:02:27;;;;;;;1.70;1.60;;;;;;;;;;5014233;28;20207;-92
2022/06/20 13:05:23;;;;;;;1.63;1.50;;;;;;;;;;5012204;28;20585;-93
2022/06/20 13:08:00;;;;;;;2.17;1.60;;;;;;;;;;5012352;28;20549;-92
2022/06/20 13:10:57;;;;;;;1.38;1.27;;;;;;;;;;5011830;28;20199;-92
2022/06/20 13:14:00;;;;;;;1.50;1.40;;;;;;;;;;5004206;28;20203;-93
2022/06/20 13:16:34;;;;;;;1.48;1.40;;;;;;;;;;4932535;28;20660;-93
2022/06/20 13:19:11;;;;;;;1.58;1.48;;;;;;;;;;5011522;28;20187;-93
2022/06/20 13:21:46;;;;;;;1.58;1.48;;;;;;;;;;5011364;28;20206;-92
2022/06/20 13:24:33;;;;;;;1.65;1.35;;;;;;;;;;5011132;28;20314;-92
2022/06/20 13:27:10;;;;;;;1.85;1.75;;;;;;;;;;5011355;28;20204;-93
2022/06/20 13:29:43;;;;;;;1.98;1.58;;;;;;;;;;5011221;28;20707;-93
2022/06/20 13:32:17;;;;;;;2.50;1.70;;;;;;;;;;5011320;28;20196;-93
2022/06/20 13:34:53;;;;;;;1.85;1.50;;;;;;;;;;5011485;28;20207;-92
2022/06/20 13:37:28;;;;;;;3.17;1.80;;;;;;;;;;5011395;28;20222;-92
2022/06/20 13:40:03;;;;;;;1.95;1.50;;;;;;;;;;5011162;28;20203;-93
2022/06/20 13:42:32;;;;;;;1.60;1.50;;;;;;;;;;5011148;28;20610;-92
2022/06/20 13:45:08;;;;;;;1.98;1.60;;;;;;;;;;5011187;28;20203;-93
2022/06/20 13:47:42;;;;;;;1.60;1.50;;;;;;;;;;5010013;28;20284;-94
2022/06/20 13:50:27;;;;;;;1.48;1.38;;;;;;;;;;5010741;28;20188;-93
2022/06/20 13:52:58;;;;;;;1.80;1.60;;;;;;;;;;5010112;28;20206;-93
2022/06/20 13:55:35;;;;;;;3.33;1.38;;;;;;;;;;5011335;28;20195;-92
2022/06/20 13:58:07;;;;;;;1.52;1.42;;;;;;;;;;5010812;28;20207;-94
2022/06/20 14:00:36;;;;;;;1.30;1.25;;;;;;;;;;5011026;28;20196;-93
2022/06/20 14:03:25;;;;;;;1.63;1.52;;;;;;;;;;5010938;28;20231;-93
2022/06/20 14:06:04;;;;;;;1.75;1.33;;;;;;;;;;5010648;28;20199;-92
2022/06/20 14:08:31;;;;;;;1.88;1.60;;;;;;;;;;5011413;28;20199;-93
2022/06/20 14:11:02;;;;;;;1.38;1.27;;;;;;;;;;5010869;28;20199;-93
2022/06/20 14:13:32;;;;;;;3.00;1.40;;;;;;;;;;5011235;28;20318;-91
2022/06/20 14:16:19;;;;;;;1.52;1.42;;;;;;;;;;5011055;28;20196;-93
2022/06/20 14:18:48;;;;;;;2.92;1.40;;;;;;;;;;5010564;28;20199;-94
2022/06/20 14:21:18;;;;;;;1.50;1.40;;;;;;;;;;5010412;28;20244;-92
2022/06/20 14:23:49;;;;;;;1.38;1.27;;;;;;;;;;5010951;28;20257;-93
2022/06/20 14:26:32;;;;;;;3.33;1.40;;;;;;;;;;5010690;28;20199;-94
2022/06/20 14:29:01;;;;;;;2.20;1.90;;;;;;;;;;5010677;28;20252;-92
2022/06/20 14:31:32;;;;;;;2.95;1.95;;;;;;;;;;5011104;28;20222;-91
2022/06/20 14:34:03;;;;;;;2.25;1.88;;;;;;;;;;5010718;28;20195;-91
2022/06/20 14:36:33;;;;;;;2.88;2.00;;;;;;;;;;5010521;28;20234;-92
2022/06/20 14:39:04;;;;;;;2.08;1.98;;;;;;;;;;5010293;28;20245;-92
2022/06/20 14:41:41;;;;;;;2.93;2.20;;;;;;;;;;5010551;28;20200;-90
2022/06/20 14:44:18;;;;;;;2.30;2.10;;;;;;;;;;5010437;28;20203;-91
2022/06/20 14:46:50;;;;;;;6.20;2.17;;;;;;;;;;5010282;28;20272;-92
2022/06/20 14:49:23;;;;;;;2.57;2.20;;;;;;;;;;5010488;28;20187;-92
2022/06/20 14:51:53;;;;;;;3.87;2.20;;;;;;;;;;5010761;28;20267;-91
2022/06/20 14:54:23;;;;;;;1.90;1.80;;;;;;;;;;5010460;28;20191;-90
2022/06/20 14:56:55;;;;;;;5.00;2.30;;;;;;;;;;5010550;28;20286;-92
2022/06/20 14:59:28;;;;;;;3.07;2.20;;;;;;;;;;5010515;28;20192;-91
2022/06/20 15:01:57;;;;;;;4.70;2.13;;;;;;;;;;5010382;28;20630;-92
2022/06/20 15:04:28;;;;;;;2.10;2.00;;;;;;;;;;5011473;28;20223;-91
2022/06/20 15:07:09;;;;;;;2.30;1.90;;;;;;;;;;5013874;28;20233;-92
2022/06/20 15:09:41;;;;;;;2.57;2.37;;;;;;;;;;5013322;28;20200;-93
2022/06/20 15:12:21;;;;;;;3.70;3.40;;;;;;;;;;5013691;28;20286;-92
2022/06/20 15:14:54;;;;;;;3.30;3.10;;;;;;;;;;5013552;28;20644;-93
2022/06/20 15:17:24;;;;;;;3.13;2.90;;;;;;;;;;5013737;28;20617;-92
2022/06/20 15:19:55;;;;;;;5.33;2.20;;;;;;;;;;5013472;28;20195;-93
2022/06/20 15:22:26;;;;;;;2.80;2.00;;;;;;;;;;5013170;28;20212;-92
2022/06/20 15:24:57;;;;;;;3.93;2.20;;;;;;;;;;5013060;28;20249;-91
2022/06/20 15:27:32;;;;;;;2.40;2.20;;;;;;;;;;5013097;28;20195;-91
2022/06/20 15:30:08;;;;;;;5.90;2.50;;;;;;;;;;5009585;28;20207;-92
2022/06/20 15:32:39;;;;;;;3.30;2.43;;;;;;;;;;5013331;28;20210;-92
2022/06/20 15:35:53;;;;;;;2.57;2.17;;;;;;;;;;5013386;28;20665;-92
2022/06/20 15:38:41;;;;;;;4.60;2.57;;;;;;;;;;5013247;28;20206;-91
2022/06/20 15:41:15;;;;;;;2.43;2.23;;;;;;;;;;5013098;28;20195;-92